aviador You're here:

LFOB Decoded Metar

BEAUVAIS in FRANCE
Report Time2018-06-17 23:30:00
UTC Time2018-06-17 23:49:08
Flight Rules vfr VFR
WindCalm
Visibility9999 m
Phenomena:N/A
Clouds:Broken 044 Hf
Expected CloudBase > 1,200 ft AGL from Temp-Dew spread
Ceiling4,400 ft
Temp15°C (ISA +1)
Dew Point12°C (82% RH)
QNH1020 hPa
Density Alt404 ft
Elevation364 ft
Report Wrong Elevation
Raw Report
LFOB 172330Z AUTO 00000KT 9999 BKN044 15/12 Q1020 BECMG OVC012=

Extra information for LFOB:More info

Metar Taf Metar & Taf Last 4 Metars F.Rules Stats Wind Profile Meteogram Temp Stats Airport Information Weather charts Add Link Nearby VenuesMetar ALERT Operation Metar Decoded Social comments